createdAt,value
2018-08-17T00:01:00.547Z,18.80
2018-08-17T00:03:30.666Z,18.70
2018-08-17T00:06:00.837Z,18.70
2018-08-17T00:08:30.968Z,18.70
2018-08-17T00:11:01.195Z,18.80
2018-08-17T00:13:31.312Z,18.90
2018-08-17T00:16:01.502Z,19.00
2018-08-17T00:18:32.069Z,19.00
2018-08-17T00:21:02.201Z,18.90
2018-08-17T00:23:32.378Z,18.90
2018-08-17T00:26:02.485Z,18.90
2018-08-17T00:28:32.611Z,18.90
2018-08-17T00:31:02.805Z,18.80
2018-08-17T00:33:32.984Z,18.80
2018-08-17T00:36:03.098Z,18.80
2018-08-17T00:38:33.186Z,18.90
2018-08-17T00:41:03.299Z,18.90
2018-08-17T00:43:33.490Z,18.80
2018-08-17T00:46:03.788Z,18.70
2018-08-17T00:48:33.880Z,18.60
2018-08-17T00:51:04.053Z,18.60
2018-08-17T00:53:34.310Z,18.60
2018-08-17T00:56:04.517Z,18.50
2018-08-17T00:58:34.699Z,18.50
2018-08-17T01:01:04.992Z,18.50
2018-08-17T01:03:35.144Z,18.60
2018-08-17T01:06:05.328Z,18.70
2018-08-17T01:08:35.518Z,18.80
2018-08-17T01:11:05.773Z,18.80
2018-08-17T01:13:35.968Z,18.90
2018-08-17T01:16:06.205Z,18.90
2018-08-17T01:18:36.382Z,18.90
2018-08-17T01:21:06.599Z,18.90
2018-08-17T01:23:36.715Z,18.90
2018-08-17T01:26:06.879Z,19.00
2018-08-17T01:28:37.075Z,18.90
2018-08-17T01:31:07.284Z,19.00
2018-08-17T01:33:37.377Z,19.10
2018-08-17T01:36:07.451Z,19.10
2018-08-17T01:38:37.574Z,19.10
2018-08-17T01:41:07.721Z,19.00
2018-08-17T01:43:37.850Z,19.00
2018-08-17T01:46:08.072Z,18.90
2018-08-17T01:48:38.181Z,18.90
2018-08-17T01:51:08.331Z,18.90
2018-08-17T01:53:38.536Z,18.90
2018-08-17T01:56:08.644Z,18.80
2018-08-17T01:58:38.740Z,18.70
2018-08-17T02:01:08.891Z,18.60
2018-08-17T02:03:38.995Z,18.50
2018-08-17T02:06:09.191Z,18.40
2018-08-17T02:08:39.341Z,18.30
2018-08-17T02:11:09.553Z,18.20
2018-08-17T02:13:39.636Z,18.10
2018-08-17T02:16:09.804Z,18.10
2018-08-17T02:18:40.159Z,18.10
2018-08-17T02:21:10.426Z,18.10
2018-08-17T02:23:40.577Z,18.00
2018-08-17T02:26:10.658Z,18.10
2018-08-17T02:28:40.860Z,18.10
2018-08-17T02:31:10.940Z,18.10
2018-08-17T02:33:41.024Z,18.10
2018-08-17T02:36:11.128Z,18.10
2018-08-17T02:38:41.236Z,18.10
2018-08-17T02:41:11.367Z,18.20
2018-08-17T02:43:41.509Z,18.20
2018-08-17T02:46:11.599Z,18.30
2018-08-17T02:48:41.766Z,18.30
2018-08-17T02:51:12.011Z,18.30
2018-08-17T02:53:42.244Z,18.40
2018-08-17T02:56:12.461Z,18.30
2018-08-17T02:58:42.621Z,18.30
2018-08-17T03:01:12.903Z,18.30
2018-08-17T03:03:42.997Z,18.30
2018-08-17T03:06:13.063Z,18.30
2018-08-17T03:08:43.167Z,18.30
2018-08-17T03:11:13.329Z,18.30
2018-08-17T03:13:43.420Z,18.30
2018-08-17T03:16:13.480Z,18.20
2018-08-17T03:18:43.576Z,18.20
2018-08-17T03:21:13.681Z,18.20
2018-08-17T03:23:43.849Z,18.20
2018-08-17T03:26:13.947Z,18.20
2018-08-17T03:28:44.096Z,18.30
2018-08-17T03:31:14.151Z,18.20
2018-08-17T03:33:44.252Z,18.20
2018-08-17T03:36:14.369Z,18.30
2018-08-17T03:38:44.502Z,18.20
2018-08-17T03:41:14.630Z,18.30
2018-08-17T03:43:44.745Z,18.30
2018-08-17T03:46:14.919Z,18.30
2018-08-17T03:48:45.028Z,18.30
2018-08-17T03:51:15.126Z,18.20
2018-08-17T03:53:45.197Z,18.10
2018-08-17T03:56:15.471Z,18.00
2018-08-17T03:58:45.661Z,17.80
2018-08-17T04:01:15.828Z,17.70
2018-08-17T04:03:45.950Z,17.60
2018-08-17T04:06:16.135Z,17.60
2018-08-17T04:08:46.268Z,17.60
2018-08-17T04:11:16.340Z,17.50
2018-08-17T04:13:46.470Z,17.60
2018-08-17T04:16:16.558Z,17.50
2018-08-17T04:18:50.609Z,17.40
2018-08-17T04:21:20.809Z,17.50
2018-08-17T04:23:51.043Z,17.50
2018-08-17T04:26:21.365Z,17.50
2018-08-17T04:28:51.859Z,17.60
2018-08-17T04:31:22.199Z,17.60
2018-08-17T04:33:52.327Z,17.60
2018-08-17T04:36:22.433Z,17.60
2018-08-17T04:38:52.518Z,17.60
2018-08-17T04:41:22.506Z,17.60
2018-08-17T04:43:52.612Z,17.70
2018-08-17T04:46:22.809Z,17.70
2018-08-17T04:48:52.939Z,17.70
2018-08-17T04:51:23.024Z,17.70
2018-08-17T04:53:53.161Z,17.70
2018-08-17T04:56:23.203Z,17.70
2018-08-17T04:58:53.396Z,17.70
2018-08-17T05:01:23.486Z,17.70
2018-08-17T05:03:53.772Z,17.70
2018-08-17T05:06:23.953Z,17.70
2018-08-17T05:08:54.091Z,17.60
2018-08-17T05:11:24.277Z,17.60
2018-08-17T05:13:54.357Z,17.60
2018-08-17T05:16:24.528Z,17.50
2018-08-17T05:18:54.871Z,17.40
2018-08-17T05:21:24.975Z,17.30
2018-08-17T05:23:55.139Z,17.10
2018-08-17T05:26:25.230Z,17.00
2018-08-17T05:28:55.382Z,16.90
2018-08-17T05:31:25.469Z,16.80
2018-08-17T05:33:55.583Z,16.70
2018-08-17T05:36:25.715Z,16.60
2018-08-17T05:38:55.888Z,16.50
2018-08-17T05:41:25.983Z,16.50
2018-08-17T05:43:56.084Z,16.50
2018-08-17T05:46:26.242Z,16.50
2018-08-17T05:48:56.557Z,16.50
2018-08-17T05:51:26.718Z,16.50
2018-08-17T05:53:56.886Z,16.50
2018-08-17T05:56:26.992Z,16.50
2018-08-17T05:58:57.200Z,16.50
2018-08-17T06:01:27.403Z,16.50
2018-08-17T06:03:57.578Z,16.50
2018-08-17T06:06:27.656Z,16.50
2018-08-17T06:08:57.751Z,16.50
2018-08-17T06:11:27.865Z,16.40
2018-08-17T06:13:57.894Z,16.40
2018-08-17T06:16:28.014Z,16.50
2018-08-17T06:18:58.157Z,16.50
2018-08-17T06:21:28.293Z,16.50
2018-08-17T06:23:58.521Z,16.50
2018-08-17T06:26:28.635Z,16.40
2018-08-17T06:28:58.797Z,16.40
2018-08-17T06:31:28.922Z,16.40
2018-08-17T06:33:59.038Z,16.40
2018-08-17T06:36:29.192Z,16.30
2018-08-17T06:38:59.351Z,16.40
2018-08-17T06:41:29.360Z,16.50
2018-08-17T06:43:59.485Z,16.60
2018-08-17T06:46:29.622Z,16.60
2018-08-17T06:48:59.809Z,16.60
2018-08-17T06:51:30.077Z,16.70
2018-08-17T06:54:00.229Z,16.60
2018-08-17T06:56:30.322Z,16.50
2018-08-17T06:59:00.499Z,16.50
2018-08-17T07:01:30.603Z,16.50
2018-08-17T07:04:00.895Z,16.40
2018-08-17T07:06:30.977Z,16.40
2018-08-17T07:09:01.179Z,16.30
2018-08-17T07:11:31.257Z,16.20
2018-08-17T07:14:01.442Z,16.20
2018-08-17T07:16:31.562Z,16.00
2018-08-17T07:19:01.696Z,16.00
2018-08-17T07:21:31.819Z,16.10
2018-08-17T07:24:01.976Z,16.10
2018-08-17T07:26:32.091Z,16.20
2018-08-17T07:29:02.241Z,16.20
2018-08-17T07:31:32.392Z,16.20
2018-08-17T07:34:02.552Z,16.30
2018-08-17T07:36:32.666Z,16.40
2018-08-17T07:39:02.797Z,16.50
2018-08-17T07:41:32.921Z,16.50
2018-08-17T07:44:03.390Z,16.70
2018-08-17T07:46:33.533Z,16.80
2018-08-17T07:49:03.709Z,17.00
2018-08-17T07:51:33.836Z,17.10
2018-08-17T07:54:03.991Z,17.20
2018-08-17T07:56:34.110Z,17.30
2018-08-17T07:59:04.259Z,17.50
2018-08-17T08:01:34.317Z,17.60
2018-08-17T08:04:04.472Z,17.70
2018-08-17T08:06:34.548Z,17.90
2018-08-17T08:09:06.387Z,18.00
2018-08-17T08:11:36.510Z,18.10
2018-08-17T08:14:06.670Z,18.30
2018-08-17T08:16:36.851Z,18.60
2018-08-17T08:19:13.294Z,18.90
2018-08-17T08:21:50.911Z,19.10
2018-08-17T08:24:21.175Z,19.30
2018-08-17T08:29:32.579Z,19.30
2018-08-17T08:32:02.677Z,19.30
2018-08-17T08:34:32.832Z,19.20
2018-08-17T08:37:02.928Z,19.10
2018-08-17T08:39:33.102Z,19.00
2018-08-17T08:42:03.287Z,18.70
2018-08-17T08:44:33.423Z,18.60
2018-08-17T08:47:03.511Z,18.40
2018-08-17T08:49:33.632Z,18.20
2018-08-17T08:52:03.830Z,18.10
2018-08-17T08:54:34.018Z,17.90
2018-08-17T08:57:04.134Z,17.90
2018-08-17T08:59:34.232Z,17.90
2018-08-17T09:02:04.391Z,17.90
2018-08-17T09:04:34.508Z,17.90
2018-08-17T09:07:04.592Z,18.00
2018-08-17T09:09:34.815Z,18.10
2018-08-17T09:12:04.949Z,18.40
2018-08-17T09:14:35.068Z,18.60
2018-08-17T09:17:05.200Z,18.50
2018-08-17T09:19:35.343Z,18.60
2018-08-17T09:22:05.605Z,18.70
2018-08-17T09:24:35.731Z,18.60
2018-08-17T09:27:06.279Z,18.60
2018-08-17T09:29:36.436Z,18.50
2018-08-17T09:32:07.563Z,18.60
2018-08-17T09:34:37.668Z,18.60
2018-08-17T09:37:08.053Z,18.60
2018-08-17T09:39:38.162Z,18.60
2018-08-17T09:42:08.414Z,18.60
2018-08-17T09:44:38.527Z,18.70
2018-08-17T09:47:08.736Z,18.80
2018-08-17T09:49:38.881Z,18.80
2018-08-17T09:52:09.000Z,18.90
2018-08-17T09:54:39.124Z,18.90
2018-08-17T09:57:09.195Z,18.90
2018-08-17T09:59:39.336Z,18.80
2018-08-17T10:02:14.621Z,18.70
2018-08-17T10:04:49.798Z,18.80
2018-08-17T10:07:24.906Z,18.80
2018-08-17T10:10:00.195Z,19.00
2018-08-17T10:12:30.272Z,19.30
2018-08-17T10:15:00.429Z,19.70
2018-08-17T10:17:30.597Z,20.10
2018-08-17T10:20:00.771Z,20.80
2018-08-17T10:22:30.936Z,20.80
2018-08-17T10:25:12.060Z,20.60
2018-08-17T10:27:42.210Z,20.50
2018-08-17T10:30:12.461Z,20.80
2018-08-17T10:32:47.696Z,20.90
2018-08-17T10:35:23.025Z,21.00
2018-08-17T10:37:55.715Z,21.30
2018-08-17T10:40:26.394Z,21.60
2018-08-17T10:42:56.647Z,21.40
2018-08-17T10:45:27.542Z,21.60
2018-08-17T10:47:58.047Z,21.60
2018-08-17T10:50:29.342Z,21.80
2018-08-17T10:53:01.484Z,21.70
2018-08-17T10:55:40.506Z,21.50
2018-08-17T10:58:16.578Z,21.20
2018-08-17T11:00:46.695Z,20.70
2018-08-17T11:03:16.762Z,20.40
2018-08-17T11:05:46.876Z,20.10
2018-08-17T11:08:16.951Z,19.90
2018-08-17T11:10:47.050Z,19.50
2018-08-17T11:13:17.177Z,19.10
2018-08-17T11:15:47.364Z,18.80
2018-08-17T11:18:17.467Z,18.60
2018-08-17T11:20:47.576Z,18.40
2018-08-17T11:23:17.662Z,18.20
2018-08-17T11:25:47.758Z,18.20
2018-08-17T11:28:17.846Z,18.10
2018-08-17T11:30:48.058Z,18.00
2018-08-17T11:33:20.228Z,18.00
2018-08-17T11:35:50.340Z,18.00
2018-08-17T11:38:20.525Z,18.00
2018-08-17T11:40:50.701Z,18.10
2018-08-17T11:43:20.871Z,18.30
2018-08-17T11:45:50.959Z,18.50
2018-08-17T11:48:28.020Z,18.90
2018-08-17T11:50:58.580Z,19.10
2018-08-17T11:53:28.728Z,19.40
2018-08-17T11:55:58.965Z,19.60
2018-08-17T11:58:29.039Z,19.70
2018-08-17T12:00:59.267Z,19.80
2018-08-17T12:03:30.126Z,19.90
2018-08-17T12:06:00.262Z,20.20
2018-08-17T12:08:30.341Z,20.60
2018-08-17T12:11:04.588Z,21.10
2018-08-17T12:13:38.175Z,21.40
2018-08-17T12:16:12.119Z,21.90
2018-08-17T12:18:42.230Z,22.30
2018-08-17T12:21:12.428Z,22.80
2018-08-17T12:23:42.486Z,23.20
2018-08-17T12:26:12.995Z,23.00
2018-08-17T12:28:43.047Z,22.70
2018-08-17T12:31:13.122Z,22.50
2018-08-17T12:33:43.233Z,22.30
2018-08-17T12:36:13.317Z,22.10
2018-08-17T12:38:43.435Z,22.30
2018-08-17T12:41:13.625Z,22.50
2018-08-17T12:43:43.683Z,22.60
2018-08-17T12:46:13.780Z,22.40
2018-08-17T12:48:43.829Z,22.40
2018-08-17T12:51:13.958Z,22.60
2018-08-17T12:53:44.089Z,23.10
2018-08-17T12:56:14.323Z,23.30
2018-08-17T12:58:44.373Z,23.50
2018-08-17T13:01:14.458Z,23.30
2018-08-17T13:03:44.520Z,22.50
2018-08-17T13:06:14.682Z,21.80
2018-08-17T13:08:44.758Z,21.50
2018-08-17T13:11:14.893Z,21.50
2018-08-17T13:13:45.005Z,21.60
2018-08-17T13:16:15.093Z,21.70
2018-08-17T13:18:45.262Z,22.00
2018-08-17T13:21:15.326Z,22.20
2018-08-17T13:23:48.143Z,22.20
2018-08-17T13:26:18.248Z,22.20
2018-08-17T13:28:48.301Z,22.10
2018-08-17T13:31:18.366Z,22.30
2018-08-17T13:33:48.414Z,22.40
2018-08-17T13:36:18.600Z,22.60
2018-08-17T13:38:48.774Z,22.50
2018-08-17T13:41:19.075Z,22.50
2018-08-17T13:43:49.199Z,22.20
2018-08-17T13:46:19.583Z,22.00
2018-08-17T13:48:49.676Z,22.00
2018-08-17T13:51:19.848Z,22.10
2018-08-17T13:53:50.032Z,22.10
2018-08-17T13:56:20.214Z,22.00
2018-08-17T13:58:50.384Z,21.90
2018-08-17T14:01:20.508Z,21.80
2018-08-17T14:03:50.612Z,21.90
2018-08-17T14:06:20.770Z,22.20
2018-08-17T14:08:50.871Z,22.50
2018-08-17T14:11:20.980Z,22.50
2018-08-17T14:13:51.071Z,22.60
2018-08-17T14:16:21.205Z,22.70
2018-08-17T14:18:51.334Z,22.60
2018-08-17T14:21:21.478Z,22.60
2018-08-17T14:23:51.599Z,22.70
2018-08-17T14:26:21.734Z,23.00
2018-08-17T14:28:51.835Z,23.10
2018-08-17T14:31:21.972Z,23.20
2018-08-17T14:33:52.132Z,23.00
2018-08-17T14:36:22.425Z,22.80
2018-08-17T14:38:52.519Z,22.60
2018-08-17T14:41:22.737Z,22.60
2018-08-17T14:43:52.883Z,22.70
2018-08-17T14:46:23.096Z,22.90
2018-08-17T14:48:53.241Z,23.10
2018-08-17T14:51:23.299Z,23.20
2018-08-17T14:53:53.431Z,23.50
2018-08-17T14:56:23.548Z,23.20
2018-08-17T14:58:53.614Z,22.80
2018-08-17T15:01:23.746Z,22.60
2018-08-17T15:03:53.975Z,22.40
2018-08-17T15:06:24.115Z,22.20
2018-08-17T15:08:54.266Z,22.30
2018-08-17T15:11:24.471Z,22.70
2018-08-17T15:13:54.548Z,23.20
2018-08-17T15:16:24.670Z,23.90
2018-08-17T15:18:54.898Z,24.30
2018-08-17T15:21:25.135Z,24.40
2018-08-17T15:23:55.319Z,24.80
2018-08-17T15:26:25.679Z,24.70
2018-08-17T15:28:55.759Z,24.00
2018-08-17T15:31:25.905Z,23.50
2018-08-17T15:33:56.123Z,23.10
2018-08-17T15:36:26.248Z,23.30
2018-08-17T15:38:56.411Z,24.30
2018-08-17T15:41:26.653Z,24.90
2018-08-17T15:43:56.726Z,25.70
2018-08-17T15:46:26.992Z,26.50
2018-08-17T15:48:57.584Z,27.00
2018-08-17T15:51:27.686Z,26.00
2018-08-17T15:53:57.725Z,25.00
2018-08-17T15:56:27.865Z,24.20
2018-08-17T15:58:58.006Z,23.60
2018-08-17T16:01:28.305Z,23.20
2018-08-17T16:03:58.404Z,22.90
2018-08-17T16:06:28.714Z,22.90
2018-08-17T16:08:58.811Z,24.20
2018-08-17T16:11:28.940Z,25.60
2018-08-17T16:13:59.045Z,25.60
2018-08-17T16:16:29.171Z,24.60
2018-08-17T16:18:59.316Z,23.70
2018-08-17T16:21:29.570Z,23.10
2018-08-17T16:23:59.683Z,22.60
2018-08-17T16:26:29.845Z,22.30
2018-08-17T16:29:00.067Z,22.30
2018-08-17T16:31:36.740Z,22.40
2018-08-17T16:34:07.328Z,22.50
2018-08-17T16:36:40.562Z,22.60
2018-08-17T16:39:17.898Z,22.90
2018-08-17T16:41:48.146Z,23.10
2018-08-17T16:44:18.213Z,23.30
2018-08-17T16:46:48.375Z,23.10
2018-08-17T16:49:18.486Z,22.90
2018-08-17T16:51:48.642Z,22.80
2018-08-17T16:54:18.734Z,22.70
2018-08-17T16:56:48.919Z,22.70
2018-08-17T16:59:18.972Z,22.70
2018-08-17T17:01:49.098Z,22.70
2018-08-17T17:04:19.181Z,22.60
2018-08-17T17:06:49.319Z,22.60
2018-08-17T17:09:19.364Z,22.60
2018-08-17T17:11:49.587Z,22.70
2018-08-17T17:14:19.636Z,22.80
2018-08-17T17:16:49.765Z,22.70
2018-08-17T17:19:21.918Z,22.60
2018-08-17T17:21:52.588Z,22.60
2018-08-17T17:24:22.781Z,22.50
2018-08-17T17:26:52.931Z,22.60
2018-08-17T17:29:23.059Z,22.50
2018-08-17T17:31:53.296Z,22.40
2018-08-17T17:34:23.356Z,22.30
2018-08-17T17:36:53.475Z,22.20
2018-08-17T17:39:23.582Z,22.00
2018-08-17T17:41:53.735Z,21.90
2018-08-17T17:44:23.837Z,21.80
2018-08-17T17:46:54.014Z,21.70
2018-08-17T17:49:24.305Z,21.60
2018-08-17T17:51:54.553Z,21.50
2018-08-17T17:54:26.601Z,21.50
2018-08-17T17:57:02.110Z,21.50
2018-08-17T17:59:32.225Z,21.50
2018-08-17T18:02:02.366Z,21.30
2018-08-17T18:04:32.507Z,21.20
2018-08-17T18:07:02.647Z,21.10
2018-08-17T18:09:32.797Z,21.10
2018-08-17T18:12:03.035Z,21.00
2018-08-17T18:14:33.194Z,20.90
2018-08-17T18:17:03.325Z,20.80
2018-08-17T18:19:33.402Z,20.70
2018-08-17T18:22:03.537Z,20.60
2018-08-17T18:24:33.679Z,20.40
2018-08-17T18:27:03.904Z,20.20
2018-08-17T18:29:33.977Z,19.90
2018-08-17T18:32:04.197Z,19.60
2018-08-17T18:34:34.367Z,19.40
2018-08-17T18:37:04.495Z,19.20
2018-08-17T18:39:34.530Z,18.90
2018-08-17T18:42:04.620Z,18.70
2018-08-17T18:44:34.687Z,18.60
2018-08-17T18:47:04.875Z,18.50
2018-08-17T18:49:34.901Z,18.40
2018-08-17T18:52:05.266Z,18.20
2018-08-17T18:54:35.461Z,18.10
2018-08-17T18:57:05.652Z,18.00
2018-08-17T18:59:35.770Z,17.80
2018-08-17T19:02:05.937Z,17.70
2018-08-17T19:04:36.055Z,17.50
2018-08-17T19:07:06.320Z,17.50
2018-08-17T19:09:36.409Z,17.40
2018-08-17T19:12:06.633Z,17.30
2018-08-17T19:14:42.470Z,17.20
2018-08-17T19:17:17.774Z,17.10
2018-08-17T19:19:47.930Z,17.10
2018-08-17T19:22:18.145Z,17.00
2018-08-17T19:24:48.393Z,16.90
2018-08-17T19:27:53.870Z,16.80
2018-08-17T19:30:29.144Z,16.80
2018-08-17T19:33:03.002Z,16.80
2018-08-17T19:35:33.089Z,16.80
2018-08-17T19:38:03.220Z,16.80
2018-08-17T19:40:33.335Z,16.80
2018-08-17T19:43:03.502Z,16.70
2018-08-17T19:45:33.563Z,16.70
2018-08-17T19:48:03.813Z,16.60
2018-08-17T19:50:33.981Z,16.60
2018-08-17T19:53:04.091Z,16.50
2018-08-17T19:55:34.178Z,16.40
2018-08-17T19:58:04.465Z,16.30
2018-08-17T20:00:34.590Z,16.30
2018-08-17T20:03:04.768Z,16.20
2018-08-17T20:05:34.831Z,16.20
2018-08-17T20:08:05.042Z,16.10
2018-08-17T20:10:35.170Z,16.00
2018-08-17T20:13:05.356Z,15.90
2018-08-17T20:15:35.595Z,15.90
2018-08-17T20:18:06.161Z,15.90
2018-08-17T20:20:36.271Z,15.90
2018-08-17T20:23:07.353Z,15.80
2018-08-17T20:25:37.563Z,15.80
2018-08-17T20:28:07.650Z,15.70
2018-08-17T20:30:37.767Z,15.70
2018-08-17T20:33:18.369Z,15.70
2018-08-17T20:35:48.462Z,15.70
2018-08-17T20:38:18.613Z,15.60
2018-08-17T20:40:48.746Z,15.60
2018-08-17T20:43:18.887Z,15.60
2018-08-17T20:45:48.967Z,15.70
2018-08-17T20:48:19.059Z,15.60
2018-08-17T20:50:49.166Z,15.60
2018-08-17T20:53:21.463Z,15.60
2018-08-17T20:55:51.580Z,15.50
2018-08-17T20:58:21.722Z,15.50
2018-08-17T21:00:51.876Z,15.40
2018-08-17T21:03:22.012Z,15.40
2018-08-17T21:05:52.104Z,15.40
2018-08-17T21:08:22.253Z,15.40
2018-08-17T21:10:52.379Z,15.40
2018-08-17T21:13:22.539Z,15.40
2018-08-17T21:15:52.676Z,15.40
2018-08-17T21:18:22.799Z,15.40
2018-08-17T21:20:52.961Z,15.50
2018-08-17T21:23:23.065Z,15.60
2018-08-17T21:25:53.186Z,15.70
2018-08-17T21:28:23.961Z,15.80
2018-08-17T21:30:54.154Z,15.90
2018-08-17T21:33:24.323Z,16.00
2018-08-17T21:35:54.450Z,16.10
2018-08-17T21:38:24.609Z,16.20
2018-08-17T21:40:54.783Z,16.40
2018-08-17T21:43:24.988Z,16.50
2018-08-17T21:45:59.048Z,16.70
2018-08-17T21:48:29.607Z,16.70
2018-08-17T21:50:59.749Z,16.80
2018-08-17T21:53:29.955Z,16.80
2018-08-17T21:56:00.373Z,16.80
2018-08-17T21:58:30.989Z,16.70
2018-08-17T22:01:01.678Z,16.70
2018-08-17T22:03:33.640Z,16.60
2018-08-17T22:06:04.041Z,16.60
2018-08-17T22:08:34.334Z,16.50
2018-08-17T22:11:04.635Z,16.70
2018-08-17T22:13:36.600Z,16.60
2018-08-17T22:16:06.912Z,16.70
2018-08-17T22:18:37.263Z,16.60
2018-08-17T22:21:07.423Z,16.60
2018-08-17T22:23:37.608Z,16.60
2018-08-17T22:26:07.875Z,16.50
2018-08-17T22:28:38.022Z,16.50
2018-08-17T22:31:08.322Z,16.50
2018-08-17T22:33:38.500Z,16.40
2018-08-17T22:36:12.680Z,16.30
2018-08-17T22:38:46.157Z,16.20
2018-08-17T22:41:16.445Z,16.00
2018-08-17T22:43:46.625Z,15.80
2018-08-17T22:46:16.958Z,15.70
2018-08-17T22:48:47.259Z,15.50
2018-08-17T22:51:17.462Z,15.50
2018-08-17T22:53:47.711Z,15.50
2018-08-17T22:56:18.023Z,15.50
2018-08-17T22:58:48.942Z,15.40
2018-08-17T23:01:21.206Z,15.20
2018-08-17T23:03:55.166Z,15.10
2018-08-17T23:06:26.975Z,14.90
2018-08-17T23:08:57.681Z,14.80
2018-08-17T23:11:36.694Z,14.70
2018-08-17T23:14:12.205Z,14.50
2018-08-17T23:16:42.966Z,14.50
2018-08-17T23:19:13.064Z,14.40
2018-08-17T23:21:43.709Z,14.40
2018-08-17T23:24:13.903Z,14.30
2018-08-17T23:26:43.983Z,14.20
2018-08-17T23:29:14.060Z,14.20
2018-08-17T23:31:44.159Z,14.10
2018-08-17T23:34:14.232Z,14.10
2018-08-17T23:36:44.343Z,14.10
2018-08-17T23:39:14.472Z,14.00
2018-08-17T23:41:44.533Z,13.90
2018-08-17T23:44:14.656Z,13.90
2018-08-17T23:46:44.662Z,13.80
2018-08-17T23:49:14.705Z,13.80
2018-08-17T23:51:44.766Z,13.80
2018-08-17T23:54:14.856Z,13.80
2018-08-17T23:56:44.992Z,13.80
2018-08-17T23:59:15.069Z,13.80
